createdAt,value
2019-05-30T00:00:12.515Z,4.00
2019-05-30T00:01:02.101Z,4.00
2019-05-30T00:02:02.503Z,4.00
2019-05-30T00:03:02.223Z,4.00
2019-05-30T00:04:03.053Z,4.00
2019-05-30T00:05:02.560Z,4.00
2019-05-30T00:06:02.353Z,4.00
2019-05-30T00:07:02.449Z,4.00
2019-05-30T00:08:02.312Z,4.00
2019-05-30T00:09:01.052Z,4.00
2019-05-30T00:10:01.049Z,4.00
2019-05-30T00:11:01.057Z,4.00
2019-05-30T00:12:01.066Z,4.00
2019-05-30T00:13:01.020Z,4.00
2019-05-30T00:14:01.039Z,4.00
2019-05-30T00:15:01.017Z,4.00
2019-05-30T00:16:00.990Z,4.00
2019-05-30T00:17:01.014Z,4.00
2019-05-30T00:19:00.964Z,4.00
2019-05-30T00:20:01.107Z,4.00
2019-05-30T00:21:00.940Z,4.00
2019-05-30T00:22:00.931Z,4.00
2019-05-30T00:23:01.037Z,4.00
2019-05-30T00:24:02.004Z,4.00
2019-05-30T00:25:02.340Z,4.00
2019-05-30T00:26:01.366Z,4.00
2019-05-30T00:27:02.317Z,4.00
2019-05-30T00:28:01.331Z,4.00
2019-05-30T00:29:00.885Z,4.00
2019-05-30T00:30:01.466Z,4.00
2019-05-30T00:31:00.852Z,4.00
2019-05-30T00:32:01.585Z,4.00
2019-05-30T00:33:00.876Z,4.00
2019-05-30T00:34:02.425Z,4.00
2019-05-30T00:35:01.925Z,4.00
2019-05-30T00:36:01.759Z,4.00
2019-05-30T00:37:01.979Z,4.00
2019-05-30T00:38:01.777Z,4.00
2019-05-30T00:39:01.815Z,4.00
2019-05-30T00:40:01.916Z,4.00
2019-05-30T00:41:01.984Z,4.00
2019-05-30T00:42:01.966Z,4.00
2019-05-30T00:43:01.906Z,4.00
2019-05-30T00:44:01.030Z,4.00
2019-05-30T00:45:02.879Z,4.00
2019-05-30T00:46:00.716Z,4.00
2019-05-30T00:47:00.743Z,4.00
2019-05-30T00:48:00.688Z,4.00
2019-05-30T00:49:00.670Z,4.00
2019-05-30T00:50:00.665Z,4.00
2019-05-30T00:51:00.641Z,4.00
2019-05-30T00:52:00.641Z,4.00
2019-05-30T00:53:00.754Z,4.00
2019-05-30T00:54:00.751Z,4.00
2019-05-30T00:55:00.721Z,4.00
2019-05-30T00:56:01.560Z,4.00
2019-05-30T00:57:00.673Z,4.00
2019-05-30T00:58:00.670Z,4.00
2019-05-30T00:59:00.674Z,4.00
2019-05-30T01:00:00.966Z,4.00
2019-05-30T01:01:01.043Z,4.00
2019-05-30T01:02:00.721Z,4.00
2019-05-30T01:03:02.873Z,4.00
2019-05-30T01:04:00.793Z,4.00
2019-05-30T01:05:00.973Z,4.00
2019-05-30T01:06:00.828Z,4.00
2019-05-30T01:07:59.371Z,4.00
2019-05-30T01:08:00.913Z,4.00
2019-05-30T01:09:01.185Z,4.00
2019-05-30T01:10:00.958Z,4.00
2019-05-30T01:11:03.166Z,4.00
2019-05-30T01:12:01.122Z,4.00
2019-05-30T01:13:01.384Z,4.00
2019-05-30T01:14:01.142Z,4.00
2019-05-30T01:15:01.188Z,4.00
2019-05-30T01:16:01.083Z,4.00
2019-05-30T01:17:03.129Z,4.00
2019-05-30T01:18:01.094Z,4.00
2019-05-30T01:19:01.101Z,4.00
2019-05-30T01:20:01.183Z,4.00
2019-05-30T01:21:01.296Z,4.00
2019-05-30T01:22:01.304Z,4.00
2019-05-30T01:23:01.725Z,4.00
2019-05-30T01:24:01.355Z,4.00
2019-05-30T01:25:01.218Z,4.00
2019-05-30T01:26:01.352Z,4.00
2019-05-30T01:27:01.341Z,4.00
2019-05-30T01:28:01.634Z,4.00
2019-05-30T01:29:01.447Z,4.00
2019-05-30T01:30:01.606Z,4.00
2019-05-30T01:31:05.523Z,4.00
2019-05-30T01:32:01.478Z,4.00
2019-05-30T01:33:01.801Z,4.00
2019-05-30T01:34:01.577Z,4.00
2019-05-30T01:35:01.924Z,4.00
2019-05-30T01:36:01.577Z,4.00
2019-05-30T01:37:01.544Z,4.00
2019-05-30T01:38:01.870Z,4.00
2019-05-30T01:39:01.726Z,4.00
2019-05-30T01:40:01.884Z,4.00
2019-05-30T01:41:02.333Z,4.00
2019-05-30T01:42:01.736Z,4.00
2019-05-30T01:43:01.986Z,4.00
2019-05-30T01:44:01.839Z,4.00
2019-05-30T01:45:02.219Z,4.00
2019-05-30T01:46:02.020Z,4.00
2019-05-30T01:47:01.993Z,4.00
2019-05-30T01:48:00.762Z,4.00
2019-05-30T01:49:00.737Z,4.00
2019-05-30T01:50:00.719Z,4.00
2019-05-30T01:51:00.722Z,4.00
2019-05-30T01:52:00.687Z,4.00
2019-05-30T01:53:00.991Z,4.00
2019-05-30T01:54:00.723Z,4.00
2019-05-30T01:55:00.682Z,4.00
2019-05-30T01:56:00.792Z,4.00
2019-05-30T01:57:00.643Z,4.00
2019-05-30T01:58:01.485Z,4.00
2019-05-30T01:59:00.710Z,4.00
2019-05-30T02:00:00.776Z,4.00
2019-05-30T02:01:17.018Z,4.00
2019-05-30T02:02:00.903Z,4.00
2019-05-30T02:03:00.787Z,4.00
2019-05-30T02:04:01.044Z,4.00
2019-05-30T02:05:01.214Z,4.00
2019-05-30T02:06:01.070Z,4.00
2019-05-30T02:07:01.022Z,4.00
2019-05-30T02:08:01.014Z,4.00
2019-05-30T02:09:01.096Z,4.00
2019-05-30T02:10:01.139Z,4.00
2019-05-30T02:11:01.316Z,4.00
2019-05-30T02:12:01.227Z,4.00
2019-05-30T02:13:01.308Z,4.00
2019-05-30T02:14:01.597Z,4.00
2019-05-30T02:15:01.446Z,4.00
2019-05-30T02:16:01.486Z,4.00
2019-05-30T02:17:01.518Z,4.00
2019-05-30T02:18:01.458Z,4.00
2019-05-30T02:19:00.127Z,4.00
2019-05-30T02:20:00.075Z,4.00
2019-05-30T02:21:00.067Z,4.00
2019-05-30T02:22:00.067Z,4.00
2019-05-30T02:23:00.045Z,4.00
2019-05-30T02:24:00.053Z,4.00
2019-05-30T02:25:00.116Z,4.00
2019-05-30T02:26:00.143Z,4.00
2019-05-30T02:27:00.050Z,4.00
2019-05-30T02:28:00.099Z,4.00
2019-05-30T02:29:00.029Z,4.00
2019-05-30T02:30:00.140Z,4.00
2019-05-30T02:31:00.540Z,4.00
2019-05-30T02:32:01.065Z,4.00
2019-05-30T02:33:00.674Z,4.00
2019-05-30T02:34:00.973Z,4.00
2019-05-30T02:35:00.781Z,4.00
2019-05-30T02:36:01.311Z,4.00
2019-05-30T02:37:01.172Z,4.00
2019-05-30T02:38:00.941Z,4.00
2019-05-30T02:39:00.792Z,4.00
2019-05-30T02:40:02.563Z,4.00
2019-05-30T02:41:01.286Z,4.00
2019-05-30T02:42:00.931Z,4.00
2019-05-30T02:43:01.202Z,4.00
2019-05-30T02:44:01.215Z,4.00
2019-05-30T02:45:01.222Z,4.00
2019-05-30T02:46:00.930Z,4.00
2019-05-30T02:47:01.281Z,4.00
2019-05-30T02:48:01.221Z,4.00
2019-05-30T02:49:01.996Z,4.00
2019-05-30T02:50:01.299Z,4.00
2019-05-30T02:51:00.953Z,4.00
2019-05-30T02:51:59.790Z,4.00
2019-05-30T02:53:01.162Z,4.00
2019-05-30T02:54:01.357Z,4.00
2019-05-30T02:55:01.430Z,4.00
2019-05-30T02:56:01.319Z,4.00
2019-05-30T02:57:01.301Z,4.00
2019-05-30T02:58:01.207Z,4.00
2019-05-30T02:59:01.350Z,4.00
2019-05-30T03:00:01.754Z,4.00
2019-05-30T03:01:01.730Z,4.00
2019-05-30T03:02:03.925Z,4.00
2019-05-30T03:03:01.758Z,4.00
2019-05-30T03:04:01.653Z,4.00
2019-05-30T03:05:01.346Z,4.00
2019-05-30T03:06:01.615Z,4.00
2019-05-30T03:06:59.659Z,4.00
2019-05-30T03:07:59.650Z,4.00
2019-05-30T03:09:01.685Z,4.00
2019-05-30T03:09:59.618Z,4.00
2019-05-30T03:10:59.593Z,4.00
2019-05-30T03:11:59.614Z,4.00
2019-05-30T03:12:59.575Z,4.00
2019-05-30T03:13:59.604Z,4.00
2019-05-30T03:14:59.678Z,4.00
2019-05-30T03:15:59.582Z,4.00
2019-05-30T03:16:59.567Z,4.00
2019-05-30T03:17:59.552Z,4.00
2019-05-30T03:18:59.557Z,4.00
2019-05-30T03:19:59.551Z,4.00
2019-05-30T03:20:59.534Z,4.00
2019-05-30T03:21:59.517Z,4.00
2019-05-30T03:22:59.522Z,4.00
2019-05-30T03:23:59.493Z,4.00
2019-05-30T03:24:59.493Z,4.00
2019-05-30T03:25:59.471Z,4.00
2019-05-30T03:26:59.465Z,4.00
2019-05-30T03:27:59.501Z,4.00
2019-05-30T03:28:59.441Z,4.00
2019-05-30T03:29:59.484Z,4.00
2019-05-30T03:30:59.439Z,4.00
2019-05-30T03:32:33.761Z,4.00
2019-05-30T03:33:07.273Z,4.00
2019-05-30T03:33:59.413Z,4.00
2019-05-30T03:34:59.393Z,4.00
2019-05-30T03:35:59.384Z,4.00
2019-05-30T03:36:59.388Z,4.00
2019-05-30T03:37:59.379Z,4.00
2019-05-30T03:38:59.378Z,4.00
2019-05-30T03:39:59.406Z,4.00
2019-05-30T03:40:59.345Z,4.00
2019-05-30T03:41:59.349Z,4.00
2019-05-30T03:42:59.375Z,4.00
2019-05-30T03:43:59.333Z,4.00
2019-05-30T03:44:59.301Z,4.00
2019-05-30T03:45:59.307Z,4.00
2019-05-30T03:46:59.303Z,4.00
2019-05-30T03:47:59.271Z,4.00
2019-05-30T03:48:59.301Z,4.00
2019-05-30T03:49:59.276Z,4.00
2019-05-30T03:50:59.246Z,4.00
2019-05-30T03:51:59.237Z,4.00
2019-05-30T03:52:59.286Z,4.00
2019-05-30T03:53:59.251Z,4.00
2019-05-30T03:54:59.214Z,4.00
2019-05-30T03:55:59.259Z,4.00
2019-05-30T03:56:59.221Z,4.00
2019-05-30T03:57:59.201Z,4.00
2019-05-30T03:58:59.224Z,4.00
2019-05-30T03:59:59.176Z,4.00
2019-05-30T04:00:59.183Z,4.00
2019-05-30T04:01:59.163Z,4.00
2019-05-30T04:02:59.571Z,4.00
2019-05-30T04:03:59.135Z,4.00
2019-05-30T04:04:59.136Z,4.00
2019-05-30T04:05:59.163Z,4.00
2019-05-30T04:06:59.123Z,4.00
2019-05-30T04:07:59.119Z,4.00
2019-05-30T04:08:59.097Z,4.00
2019-05-30T04:09:59.092Z,4.00
2019-05-30T04:10:59.058Z,4.00
2019-05-30T04:11:59.072Z,4.00
2019-05-30T04:12:59.050Z,4.00
2019-05-30T04:13:59.070Z,4.00
2019-05-30T04:14:59.032Z,4.00
2019-05-30T04:15:59.028Z,4.00
2019-05-30T04:16:59.019Z,4.00
2019-05-30T04:17:59.083Z,4.00
2019-05-30T04:18:59.022Z,4.00
2019-05-30T04:19:59.002Z,4.00
2019-05-30T04:20:58.982Z,4.00
2019-05-30T04:21:58.974Z,4.00
2019-05-30T04:22:58.962Z,4.00
2019-05-30T04:23:58.968Z,4.00
2019-05-30T04:24:58.964Z,4.00
2019-05-30T04:26:00.737Z,4.00
2019-05-30T04:26:58.927Z,4.00
2019-05-30T04:27:58.947Z,4.00
2019-05-30T04:28:58.966Z,4.00
2019-05-30T04:29:58.921Z,4.00
2019-05-30T04:30:58.899Z,4.00
2019-05-30T04:31:58.897Z,4.00
2019-05-30T04:33:16.172Z,4.00
2019-05-30T04:33:58.867Z,4.00
2019-05-30T04:34:58.872Z,4.00
2019-05-30T04:35:58.870Z,4.00
2019-05-30T04:36:58.858Z,4.00
2019-05-30T04:37:58.849Z,4.00
2019-05-30T04:38:58.838Z,4.00
2019-05-30T04:39:58.807Z,4.00
2019-05-30T04:40:58.827Z,4.00
2019-05-30T04:41:58.812Z,4.00
2019-05-30T04:42:58.797Z,4.00
2019-05-30T04:43:58.790Z,4.00
2019-05-30T04:44:58.784Z,4.00
2019-05-30T04:45:58.771Z,4.00
2019-05-30T04:46:58.740Z,4.00
2019-05-30T04:47:58.883Z,4.00
2019-05-30T04:48:58.780Z,4.00
2019-05-30T04:49:58.720Z,4.00
2019-05-30T04:50:58.734Z,4.00
2019-05-30T04:51:58.714Z,4.00
2019-05-30T04:52:58.744Z,4.00
2019-05-30T04:53:58.710Z,4.00
2019-05-30T04:54:58.692Z,4.00
2019-05-30T04:55:58.687Z,4.00
2019-05-30T04:56:58.677Z,4.00
2019-05-30T04:57:58.642Z,4.00
2019-05-30T04:58:58.644Z,4.00
2019-05-30T04:59:58.680Z,4.00
2019-05-30T05:00:58.645Z,4.00
2019-05-30T05:01:58.624Z,4.00
2019-05-30T05:02:58.620Z,4.00
2019-05-30T05:03:58.610Z,4.00
2019-05-30T05:04:58.587Z,4.00
2019-05-30T05:05:58.576Z,4.00
2019-05-30T05:06:58.578Z,4.00
2019-05-30T05:07:58.587Z,4.00
2019-05-30T05:08:58.565Z,4.00
2019-05-30T05:09:58.546Z,4.00
2019-05-30T05:10:58.520Z,4.00
2019-05-30T05:11:58.525Z,4.00
2019-05-30T05:12:58.515Z,4.00
2019-05-30T05:13:58.502Z,4.00
2019-05-30T05:14:58.485Z,4.00
2019-05-30T05:15:58.484Z,4.00
2019-05-30T05:16:58.493Z,4.00
2019-05-30T05:17:58.483Z,4.00
2019-05-30T05:18:58.503Z,4.00
2019-05-30T05:19:58.465Z,4.00
2019-05-30T05:20:58.456Z,4.00
2019-05-30T05:21:58.440Z,4.00
2019-05-30T05:22:58.443Z,4.00
2019-05-30T05:23:58.425Z,4.00
2019-05-30T05:24:58.417Z,4.00
2019-05-30T05:26:01.182Z,4.00
2019-05-30T05:26:58.378Z,4.00
2019-05-30T05:27:58.383Z,4.00
2019-05-30T05:28:58.366Z,4.00
2019-05-30T05:29:58.379Z,4.00
2019-05-30T05:30:58.396Z,4.00
2019-05-30T05:31:58.349Z,4.00
2019-05-30T05:32:58.326Z,4.00
2019-05-30T05:33:58.314Z,4.00
2019-05-30T05:34:58.321Z,4.00
2019-05-30T05:35:58.297Z,4.00
2019-05-30T05:36:58.296Z,4.00
2019-05-30T05:37:58.289Z,4.00
2019-05-30T05:38:58.325Z,4.00
2019-05-30T05:39:58.275Z,4.00
2019-05-30T05:40:58.274Z,4.00
2019-05-30T05:41:58.246Z,4.00
2019-05-30T05:42:58.260Z,4.00
2019-05-30T05:43:58.293Z,4.00
2019-05-30T05:44:58.276Z,4.00
2019-05-30T05:45:58.225Z,4.00
2019-05-30T05:46:58.212Z,4.00
2019-05-30T05:47:58.196Z,4.00
2019-05-30T05:48:58.200Z,4.00
2019-05-30T05:49:58.188Z,4.00
2019-05-30T05:50:58.175Z,4.00
2019-05-30T05:51:58.186Z,4.00
2019-05-30T05:52:58.160Z,4.00
2019-05-30T05:53:58.164Z,4.00
2019-05-30T05:54:58.153Z,4.00
2019-05-30T05:55:58.151Z,4.00
2019-05-30T05:56:58.132Z,4.00
2019-05-30T05:57:58.113Z,4.00
2019-05-30T05:58:58.090Z,4.00
2019-05-30T05:59:58.091Z,4.00
2019-05-30T06:00:58.091Z,4.00
2019-05-30T06:01:58.080Z,4.00
2019-05-30T06:02:58.054Z,4.00
2019-05-30T06:04:11.982Z,4.00
2019-05-30T06:04:58.065Z,4.00
2019-05-30T06:05:58.022Z,4.00
2019-05-30T06:06:58.024Z,4.00
2019-05-30T06:07:58.030Z,4.00
2019-05-30T06:08:58.004Z,4.00
2019-05-30T06:09:57.984Z,4.00
2019-05-30T06:10:58.001Z,4.00
2019-05-30T06:11:58.002Z,4.00
2019-05-30T06:12:57.982Z,4.00
2019-05-30T06:13:57.954Z,4.00
2019-05-30T06:14:57.974Z,4.00
2019-05-30T06:15:57.958Z,4.00
2019-05-30T06:16:57.950Z,4.00
2019-05-30T06:17:57.947Z,4.00
2019-05-30T06:18:57.927Z,4.00
2019-05-30T06:19:57.921Z,4.00
2019-05-30T06:20:57.948Z,4.00
2019-05-30T06:21:57.952Z,4.00
2019-05-30T06:22:57.881Z,4.00
2019-05-30T06:23:57.861Z,4.00
2019-05-30T06:24:57.879Z,4.00
2019-05-30T06:25:57.885Z,4.00
2019-05-30T06:26:57.873Z,4.00
2019-05-30T06:27:57.859Z,4.00
2019-05-30T06:28:57.831Z,4.00
2019-05-30T06:29:57.857Z,4.00
2019-05-30T06:30:59.020Z,4.00
2019-05-30T06:31:57.813Z,4.00
2019-05-30T06:32:57.798Z,4.00
2019-05-30T06:33:57.814Z,4.00
2019-05-30T06:34:57.769Z,4.00
2019-05-30T06:35:57.776Z,4.00
2019-05-30T06:36:57.756Z,4.00
2019-05-30T06:37:57.771Z,4.00
2019-05-30T06:38:57.788Z,4.00
2019-05-30T06:39:57.788Z,4.00
2019-05-30T06:40:57.727Z,4.00
2019-05-30T06:41:57.740Z,4.00
2019-05-30T06:42:57.722Z,4.00
2019-05-30T06:43:57.701Z,4.00
2019-05-30T06:44:57.692Z,4.00
2019-05-30T06:45:57.677Z,4.00
2019-05-30T06:46:57.666Z,4.00
2019-05-30T06:47:57.682Z,4.00
2019-05-30T06:48:57.648Z,4.00
2019-05-30T06:49:57.640Z,4.00
2019-05-30T06:50:57.630Z,4.00
2019-05-30T06:51:57.640Z,4.00
2019-05-30T06:52:57.631Z,4.00
2019-05-30T06:53:57.598Z,4.00
2019-05-30T06:54:57.600Z,4.00
2019-05-30T06:55:57.629Z,4.00
2019-05-30T06:56:57.597Z,4.00
2019-05-30T06:57:57.581Z,4.00
2019-05-30T06:58:57.578Z,4.00
2019-05-30T06:59:57.538Z,4.00
2019-05-30T07:00:57.581Z,4.00
2019-05-30T07:01:57.532Z,4.00
2019-05-30T07:02:57.556Z,4.00
2019-05-30T07:03:57.660Z,4.00
2019-05-30T07:04:58.016Z,4.00
2019-05-30T07:05:57.900Z,4.00
2019-05-30T07:06:57.601Z,4.00
2019-05-30T07:07:57.483Z,4.00
2019-05-30T07:08:57.498Z,4.00
2019-05-30T07:09:57.472Z,4.00
2019-05-30T07:10:57.445Z,4.00
2019-05-30T07:11:57.463Z,4.00
2019-05-30T07:12:57.451Z,4.00
2019-05-30T07:13:57.441Z,4.00
2019-05-30T07:14:57.424Z,4.00
2019-05-30T07:15:57.418Z,4.00
2019-05-30T07:16:57.410Z,4.00
2019-05-30T07:17:57.438Z,4.00
2019-05-30T07:18:57.392Z,4.00
2019-05-30T07:19:57.400Z,4.00
2019-05-30T07:20:57.383Z,4.00
2019-05-30T07:21:57.364Z,4.00
2019-05-30T07:22:57.359Z,4.00
2019-05-30T07:23:57.380Z,4.00
2019-05-30T07:24:57.344Z,4.00
2019-05-30T07:25:57.315Z,4.00
2019-05-30T07:26:57.352Z,4.00
2019-05-30T07:27:57.287Z,4.00
2019-05-30T07:29:00.549Z,4.00
2019-05-30T07:29:57.306Z,4.00
2019-05-30T07:30:57.272Z,4.00
2019-05-30T07:31:57.315Z,4.00
2019-05-30T07:32:57.281Z,4.00
2019-05-30T07:33:57.256Z,4.00
2019-05-30T07:35:06.150Z,4.00
2019-05-30T07:35:57.251Z,4.00
2019-05-30T07:36:57.231Z,4.00
2019-05-30T07:37:57.225Z,4.00
2019-05-30T07:38:57.191Z,4.00
2019-05-30T07:39:57.201Z,4.00
2019-05-30T07:40:57.196Z,4.00
2019-05-30T07:42:06.296Z,4.00
2019-05-30T07:42:57.180Z,4.00
2019-05-30T07:43:57.176Z,4.00
2019-05-30T07:44:57.178Z,4.00
2019-05-30T07:45:58.553Z,4.00
2019-05-30T07:46:57.131Z,4.00
2019-05-30T07:47:57.121Z,4.00
2019-05-30T07:48:57.121Z,4.00
2019-05-30T07:49:57.092Z,4.00
2019-05-30T07:50:57.112Z,4.00
2019-05-30T07:51:57.102Z,4.00
2019-05-30T07:52:57.084Z,4.00
2019-05-30T07:53:57.091Z,4.00
2019-05-30T07:54:57.055Z,4.00
2019-05-30T07:55:57.053Z,4.00
2019-05-30T07:56:57.047Z,4.00
2019-05-30T07:57:57.050Z,4.00
2019-05-30T07:58:57.032Z,4.00
2019-05-30T07:59:57.017Z,4.00
2019-05-30T08:00:57.008Z,4.00
2019-05-30T08:01:56.991Z,4.00
2019-05-30T08:02:57.005Z,4.00
2019-05-30T08:03:56.985Z,4.00
2019-05-30T08:04:57.020Z,4.00
2019-05-30T08:05:56.962Z,4.00
2019-05-30T08:06:56.971Z,4.00
2019-05-30T08:07:56.948Z,4.00
2019-05-30T08:08:56.936Z,4.00
2019-05-30T08:09:56.940Z,4.00
2019-05-30T08:11:08.864Z,4.00
2019-05-30T08:11:56.923Z,4.00
2019-05-30T08:12:56.922Z,4.00
2019-05-30T08:13:56.897Z,4.00
2019-05-30T08:14:56.896Z,4.00
2019-05-30T08:15:56.872Z,4.00
2019-05-30T08:16:56.877Z,4.00
2019-05-30T08:17:56.864Z,4.00
2019-05-30T08:18:56.844Z,4.00
2019-05-30T08:19:56.883Z,4.00
2019-05-30T08:20:56.827Z,4.00
2019-05-30T08:21:56.829Z,4.00
2019-05-30T08:22:56.809Z,4.00
2019-05-30T08:23:56.807Z,4.00
2019-05-30T08:24:56.810Z,4.00
2019-05-30T08:25:56.786Z,4.00
2019-05-30T08:26:56.766Z,4.00
2019-05-30T08:27:56.762Z,4.00
2019-05-30T08:28:56.766Z,4.00
2019-05-30T08:29:56.753Z,4.00
2019-05-30T08:30:56.997Z,4.00
2019-05-30T08:31:56.745Z,4.00
2019-05-30T08:32:56.726Z,4.00
2019-05-30T08:33:56.728Z,4.00
2019-05-30T08:34:56.723Z,4.00
2019-05-30T08:35:56.700Z,4.00
2019-05-30T08:36:56.698Z,4.00
2019-05-30T08:37:56.665Z,4.00
2019-05-30T08:38:56.662Z,4.00
2019-05-30T08:39:56.674Z,4.00
2019-05-30T08:40:56.647Z,4.00
2019-05-30T08:41:56.736Z,4.00
2019-05-30T08:42:56.654Z,4.00
2019-05-30T08:43:56.639Z,4.00
2019-05-30T08:44:56.628Z,4.00
2019-05-30T08:45:56.612Z,4.00
2019-05-30T08:46:56.584Z,4.00
2019-05-30T08:47:56.591Z,4.00
2019-05-30T08:48:56.621Z,4.00
2019-05-30T08:49:56.579Z,4.00
2019-05-30T08:50:56.573Z,4.00
2019-05-30T08:51:56.557Z,4.00
2019-05-30T08:52:56.595Z,4.00
2019-05-30T08:53:56.520Z,4.00
2019-05-30T08:54:56.511Z,4.00
2019-05-30T08:55:56.508Z,4.00
2019-05-30T08:56:56.521Z,8.00
2019-05-30T08:57:56.491Z,4.00
2019-05-30T08:58:56.524Z,4.00
2019-05-30T08:59:56.466Z,4.00
2019-05-30T09:00:56.487Z,4.00
2019-05-30T09:01:56.447Z,4.00
2019-05-30T09:02:56.437Z,4.00
2019-05-30T09:03:56.434Z,4.00
2019-05-30T09:04:56.438Z,4.00
2019-05-30T09:06:03.327Z,4.00
2019-05-30T09:06:56.409Z,4.00
2019-05-30T09:07:56.410Z,4.00
2019-05-30T09:08:56.383Z,4.00
2019-05-30T09:09:56.394Z,4.00
2019-05-30T09:10:56.361Z,4.00
2019-05-30T09:11:56.374Z,4.00
2019-05-30T09:12:56.415Z,4.00
2019-05-30T09:13:56.354Z,4.00
2019-05-30T09:14:56.330Z,4.00
2019-05-30T09:15:56.334Z,4.00
2019-05-30T09:16:57.081Z,4.00
2019-05-30T09:17:56.370Z,8.00
2019-05-30T09:18:56.307Z,8.00
2019-05-30T09:19:56.291Z,8.00
2019-05-30T09:20:56.305Z,8.00
2019-05-30T09:21:56.291Z,8.00
2019-05-30T09:22:56.265Z,8.00
2019-05-30T09:24:00.361Z,8.00
2019-05-30T09:24:56.267Z,8.00
2019-05-30T09:25:56.246Z,8.00
2019-05-30T09:26:56.239Z,4.00
2019-05-30T09:27:56.211Z,8.00
2019-05-30T09:28:56.213Z,8.00
2019-05-30T09:29:56.195Z,8.00
2019-05-30T09:30:56.187Z,8.00
2019-05-30T09:31:56.206Z,12.00
2019-05-30T09:32:56.195Z,8.00
2019-05-30T09:33:56.180Z,8.00
2019-05-30T09:34:56.172Z,12.00
2019-05-30T09:36:11.794Z,8.00
2019-05-30T09:36:56.159Z,12.00
2019-05-30T09:37:56.144Z,8.00
2019-05-30T09:38:56.127Z,12.00
2019-05-30T09:39:56.132Z,12.00
2019-05-30T09:40:56.103Z,12.00
2019-05-30T09:41:56.087Z,16.00
2019-05-30T09:42:56.077Z,12.00
2019-05-30T09:43:56.079Z,16.00
2019-05-30T09:44:56.083Z,16.00
2019-05-30T09:45:56.077Z,16.00
2019-05-30T09:46:56.056Z,16.00
2019-05-30T09:47:56.036Z,16.00
2019-05-30T09:48:56.052Z,20.00
2019-05-30T09:49:56.026Z,24.00
2019-05-30T09:50:56.024Z,20.00
2019-05-30T09:51:56.018Z,16.00
2019-05-30T09:52:56.004Z,16.00
2019-05-30T09:53:55.995Z,16.00
2019-05-30T09:54:55.978Z,20.00
2019-05-30T09:55:55.968Z,20.00
2019-05-30T09:56:57.333Z,24.00
2019-05-30T09:57:55.943Z,24.00
2019-05-30T09:58:55.956Z,24.00
2019-05-30T09:59:55.940Z,24.00
2019-05-30T10:00:55.983Z,24.00
2019-05-30T10:01:55.915Z,28.00
2019-05-30T10:02:55.904Z,28.00
2019-05-30T10:03:55.898Z,32.00
2019-05-30T10:04:55.892Z,32.00
2019-05-30T10:05:55.875Z,40.00
2019-05-30T10:06:55.876Z,36.00
2019-05-30T10:07:55.858Z,40.00
2019-05-30T10:08:55.834Z,48.00
2019-05-30T10:09:55.834Z,52.00
2019-05-30T10:10:55.840Z,64.00
2019-05-30T10:11:55.826Z,64.00
2019-05-30T10:12:56.539Z,64.00
2019-05-30T10:13:56.800Z,72.00
2019-05-30T10:14:57.025Z,76.00
2019-05-30T10:15:56.631Z,88.00
2019-05-30T10:16:56.874Z,96.00
2019-05-30T10:17:56.874Z,92.00
2019-05-30T10:18:56.887Z,92.00
2019-05-30T10:19:57.225Z,88.00
2019-05-30T10:20:57.034Z,84.00
2019-05-30T10:21:57.152Z,80.00
2019-05-30T10:22:57.119Z,88.00
2019-05-30T10:23:55.726Z,92.00
2019-05-30T10:24:55.715Z,104.00
2019-05-30T10:25:55.689Z,104.00
2019-05-30T10:26:55.689Z,104.00
2019-05-30T10:27:55.719Z,108.00
2019-05-30T10:28:55.662Z,112.00
2019-05-30T10:29:55.665Z,116.00
2019-05-30T10:30:58.948Z,120.00
2019-05-30T10:31:56.883Z,112.00
2019-05-30T10:32:55.893Z,116.00
2019-05-30T10:33:56.849Z,120.00
2019-05-30T10:34:56.132Z,120.00
2019-05-30T10:35:56.942Z,124.00
2019-05-30T10:36:55.787Z,132.00
2019-05-30T10:37:56.810Z,144.00
2019-05-30T10:38:56.037Z,160.00
2019-05-30T10:39:58.677Z,172.00
2019-05-30T10:40:56.086Z,196.00
2019-05-30T10:41:55.574Z,228.00
2019-05-30T10:42:56.765Z,256.00
2019-05-30T10:43:55.541Z,256.00
2019-05-30T10:44:56.412Z,272.00
2019-05-30T10:45:55.539Z,256.00
2019-05-30T10:46:56.507Z,256.00
2019-05-30T10:47:55.509Z,252.00
2019-05-30T10:48:56.739Z,264.00
2019-05-30T10:49:55.527Z,276.00
2019-05-30T10:50:56.378Z,268.00
2019-05-30T10:51:58.813Z,248.00
2019-05-30T10:52:55.602Z,252.00
2019-05-30T10:53:55.754Z,296.00
2019-05-30T10:54:55.605Z,304.00
2019-05-30T10:55:56.419Z,280.00
2019-05-30T10:56:55.678Z,248.00
2019-05-30T10:57:58.117Z,232.00
2019-05-30T10:58:55.398Z,196.00
2019-05-30T10:59:56.728Z,176.00
2019-05-30T11:00:55.770Z,168.00
2019-05-30T11:01:56.583Z,184.00
2019-05-30T11:02:55.383Z,180.00
2019-05-30T11:03:55.380Z,184.00
2019-05-30T11:04:55.369Z,176.00
2019-05-30T11:05:55.365Z,192.00
2019-05-30T11:07:07.585Z,272.00
2019-05-30T11:08:05.297Z,292.00
2019-05-30T11:08:55.322Z,276.00
2019-05-30T11:09:55.312Z,276.00
2019-05-30T11:10:55.355Z,204.00
2019-05-30T11:11:55.296Z,228.00
2019-05-30T11:13:00.356Z,324.00
2019-05-30T11:13:55.408Z,376.00
2019-05-30T11:14:55.343Z,348.00
2019-05-30T11:15:55.503Z,400.00
2019-05-30T11:16:55.594Z,428.00
2019-05-30T11:17:56.245Z,412.00
2019-05-30T11:18:56.175Z,392.00
2019-05-30T11:19:56.153Z,400.00
2019-05-30T11:20:56.175Z,412.00
2019-05-30T11:21:56.249Z,416.00
2019-05-30T11:22:56.364Z,432.00
2019-05-30T11:23:56.627Z,436.00
2019-05-30T11:24:56.794Z,496.00
2019-05-30T11:25:55.176Z,532.00
2019-05-30T11:26:55.557Z,532.00
2019-05-30T11:27:55.157Z,540.00
2019-05-30T11:28:55.127Z,552.00
2019-05-30T11:29:55.135Z,520.00
2019-05-30T11:30:55.141Z,536.00
2019-05-30T11:31:55.131Z,1176.00
2019-05-30T11:32:55.181Z,644.00
2019-05-30T11:33:55.113Z,528.00
2019-05-30T11:34:55.439Z,360.00
2019-05-30T11:35:55.165Z,404.00
2019-05-30T11:36:55.151Z,460.00
2019-05-30T11:37:55.251Z,460.00
2019-05-30T11:38:55.326Z,1352.00
2019-05-30T11:39:55.338Z,496.00
2019-05-30T11:40:55.490Z,476.00
2019-05-30T11:41:55.322Z,972.00
2019-05-30T11:42:55.498Z,600.00
2019-05-30T11:43:55.581Z,676.00
2019-05-30T11:44:55.473Z,1640.00
2019-05-30T11:45:55.997Z,1380.00
2019-05-30T11:46:55.605Z,1624.00
2019-05-30T11:47:55.746Z,752.00
2019-05-30T11:48:55.654Z,1632.00
2019-05-30T11:49:55.733Z,1732.00
2019-05-30T11:50:55.779Z,1316.00
2019-05-30T11:51:55.773Z,1480.00
2019-05-30T11:52:55.853Z,1616.00
2019-05-30T11:53:55.817Z,1652.00
2019-05-30T11:54:55.937Z,1776.00
2019-05-30T11:55:56.150Z,604.00
2019-05-30T11:56:56.056Z,680.00
2019-05-30T11:57:56.132Z,1348.00
2019-05-30T11:58:55.919Z,760.00
2019-05-30T11:59:56.151Z,568.00
2019-05-30T12:00:54.859Z,836.00
2019-05-30T12:01:54.861Z,1588.00
2019-05-30T12:02:54.901Z,2052.00
2019-05-30T12:03:54.845Z,1700.00
2019-05-30T12:04:54.845Z,1780.00
2019-05-30T12:05:55.150Z,1988.00
2019-05-30T12:06:54.831Z,1840.00
2019-05-30T12:07:54.931Z,1672.00
2019-05-30T12:08:54.802Z,1972.00
2019-05-30T12:09:54.846Z,1672.00
2019-05-30T12:10:55.023Z,820.00
2019-05-30T12:11:55.166Z,1404.00
2019-05-30T12:12:55.243Z,1968.00
2019-05-30T12:13:55.210Z,920.00
2019-05-30T12:14:55.248Z,840.00
2019-05-30T12:15:55.434Z,664.00
2019-05-30T12:16:55.241Z,1928.00
2019-05-30T12:17:55.331Z,1960.00
2019-05-30T12:18:55.762Z,864.00
2019-05-30T12:19:56.002Z,1880.00
2019-05-30T12:20:55.667Z,1452.00
2019-05-30T12:21:55.554Z,1620.00
2019-05-30T12:22:55.810Z,852.00
2019-05-30T12:23:55.925Z,1528.00
2019-05-30T12:24:55.801Z,1280.00
2019-05-30T12:25:55.886Z,1520.00
2019-05-30T12:26:55.920Z,1896.00
2019-05-30T12:27:55.945Z,2360.00
2019-05-30T12:28:54.659Z,2340.00
2019-05-30T12:29:54.652Z,2348.00
2019-05-30T12:30:59.279Z,2348.00
2019-05-30T12:31:57.574Z,2188.00
2019-05-30T12:32:54.638Z,1864.00
2019-05-30T12:33:54.629Z,1956.00
2019-05-30T12:34:54.620Z,1288.00
2019-05-30T12:35:54.624Z,1360.00
2019-05-30T12:36:54.592Z,1344.00
2019-05-30T12:37:59.118Z,1080.00
2019-05-30T12:38:54.578Z,1252.00
2019-05-30T12:39:54.596Z,1448.00
2019-05-30T12:40:54.707Z,1604.00
2019-05-30T12:41:54.859Z,1656.00
2019-05-30T12:42:57.350Z,1544.00
2019-05-30T12:43:55.025Z,1432.00
2019-05-30T12:44:55.011Z,1208.00
2019-05-30T12:45:54.923Z,928.00
2019-05-30T12:46:55.461Z,904.00
2019-05-30T12:47:55.107Z,1168.00
2019-05-30T12:48:55.192Z,1168.00
2019-05-30T12:49:55.158Z,1028.00
2019-05-30T12:50:55.173Z,956.00
2019-05-30T12:51:54.495Z,1016.00
2019-05-30T12:52:55.490Z,1028.00
2019-05-30T12:53:54.489Z,1000.00
2019-05-30T12:54:54.510Z,988.00
2019-05-30T12:55:54.500Z,1056.00
2019-05-30T12:56:54.623Z,1404.00
2019-05-30T12:57:54.600Z,1528.00
2019-05-30T12:58:54.580Z,1428.00
2019-05-30T12:59:54.731Z,1596.00
2019-05-30T13:00:54.606Z,1532.00
2019-05-30T13:01:54.764Z,1572.00
2019-05-30T13:02:54.664Z,1616.00
2019-05-30T13:03:54.790Z,1684.00